createdAt,value
2023-04-05T00:01:53.574Z,59.57
2023-04-05T00:04:24.055Z,59.65
2023-04-05T00:06:52.960Z,59.81
2023-04-05T00:09:23.246Z,60.05
2023-04-05T00:11:52.854Z,59.92
2023-04-05T00:14:19.622Z,60.18
2023-04-05T00:16:56.879Z,60.42
2023-04-05T00:19:26.122Z,60.48
2023-04-05T00:21:55.054Z,60.81
2023-04-05T00:24:44.793Z,60.59
2023-04-05T00:27:17.839Z,61.01
2023-04-05T00:29:57.421Z,61.31
2023-04-05T00:32:28.464Z,61.67
2023-04-05T00:34:55.415Z,61.71
2023-04-05T00:37:27.036Z,61.55
2023-04-05T00:39:57.582Z,62.05
2023-04-05T00:42:24.398Z,61.84
2023-04-05T00:44:54.284Z,61.90
2023-04-05T00:47:21.384Z,61.74
2023-04-05T00:49:52.443Z,61.42
2023-04-05T00:52:23.466Z,61.97
2023-04-05T00:54:52.579Z,61.75
2023-04-05T00:57:20.133Z,61.86
2023-04-05T00:59:50.196Z,61.81
2023-04-05T01:02:34.531Z,62.02
2023-04-05T01:05:16.878Z,62.46
2023-04-05T01:08:00.146Z,62.33
2023-04-05T01:10:35.562Z,62.29
2023-04-05T01:13:02.785Z,63.01
2023-04-05T01:15:30.860Z,63.02
2023-04-05T01:17:57.749Z,63.25
2023-04-05T01:20:38.292Z,63.04
2023-04-05T01:23:44.123Z,62.76
2023-04-05T01:26:59.356Z,62.85
2023-04-05T01:29:38.830Z,63.01
2023-04-05T01:32:05.541Z,63.32
2023-04-05T01:34:58.312Z,63.10
2023-04-05T01:37:34.703Z,63.00
2023-04-05T01:40:06.208Z,63.25
2023-04-05T01:42:32.989Z,62.97
2023-04-05T01:45:03.183Z,63.18
2023-04-05T01:47:37.277Z,63.19
2023-04-05T01:50:10.465Z,63.23
2023-04-05T01:52:40.617Z,63.18
2023-04-05T01:55:07.618Z,62.87
2023-04-05T01:57:45.010Z,63.17
2023-04-05T02:00:21.701Z,63.76
2023-04-05T02:02:48.695Z,63.95
2023-04-05T02:05:16.040Z,64.23
2023-04-05T02:07:42.818Z,64.25
2023-04-05T02:10:13.441Z,64.72
2023-04-05T02:12:40.253Z,64.47
2023-04-05T02:15:12.729Z,65.09
2023-04-05T02:17:46.079Z,64.96
2023-04-05T02:20:14.768Z,65.28
2023-04-05T02:22:48.249Z,65.35
2023-04-05T02:25:15.520Z,65.68
2023-04-05T02:27:42.276Z,65.68
2023-04-05T02:30:10.497Z,65.27
2023-04-05T02:32:37.323Z,65.11
2023-04-05T02:35:04.395Z,65.16
2023-04-05T02:37:31.353Z,64.78
2023-04-05T02:39:58.228Z,64.83
2023-04-05T02:42:24.993Z,65.33
2023-04-05T02:44:52.583Z,65.23
2023-04-05T02:47:21.796Z,65.75
2023-04-05T02:49:54.540Z,65.18
2023-04-05T02:52:23.762Z,65.75
2023-04-05T02:54:50.646Z,65.71
2023-04-05T02:57:23.680Z,65.68
2023-04-05T03:00:00.755Z,65.96
2023-04-05T03:02:31.466Z,66.36
2023-04-05T03:05:02.376Z,66.43
2023-04-05T03:07:33.010Z,66.59
2023-04-05T03:10:02.623Z,66.54
2023-04-05T03:12:29.688Z,66.56
2023-04-05T03:14:56.462Z,67.04
2023-04-05T03:17:25.959Z,66.78
2023-04-05T03:20:00.946Z,66.45
2023-04-05T03:22:28.138Z,66.58
2023-04-05T03:24:57.396Z,66.64
2023-04-05T03:27:24.605Z,66.91
2023-04-05T03:30:04.922Z,66.61
2023-04-05T03:32:36.294Z,66.87
2023-04-05T03:35:32.771Z,66.88
2023-04-05T03:38:00.623Z,66.71
2023-04-05T03:40:28.349Z,66.92
2023-04-05T03:42:55.073Z,66.39
2023-04-05T03:45:24.528Z,66.34
2023-04-05T03:47:52.337Z,66.86
2023-04-05T03:50:19.200Z,66.54
2023-04-05T03:52:46.465Z,66.51
2023-04-05T03:55:14.155Z,66.94
2023-04-05T03:57:41.955Z,67.34
2023-04-05T04:00:20.921Z,66.98
2023-04-05T04:03:04.206Z,67.04
2023-04-05T04:05:31.388Z,67.13
2023-04-05T04:07:59.084Z,66.60
2023-04-05T04:10:26.125Z,66.86
2023-04-05T04:12:56.483Z,66.67
2023-04-05T04:15:28.177Z,66.36
2023-04-05T04:18:15.487Z,66.51
2023-04-05T04:21:08.518Z,66.52
2023-04-05T04:23:53.484Z,66.43
2023-04-05T04:26:43.102Z,66.14
2023-04-05T04:29:18.953Z,66.62
2023-04-05T04:32:11.623Z,66.66
2023-04-05T04:35:04.974Z,66.46
2023-04-05T04:38:05.981Z,67.13
2023-04-05T04:40:47.204Z,66.88
2023-04-05T04:43:37.351Z,66.29
2023-04-05T04:46:19.301Z,66.68
2023-04-05T04:49:13.368Z,66.35
2023-04-05T04:51:46.183Z,66.25
2023-04-05T04:54:13.247Z,66.52
2023-04-05T04:56:41.440Z,66.35
2023-04-05T04:59:08.216Z,67.14
2023-04-05T05:01:35.337Z,67.69
2023-04-05T05:04:04.118Z,67.95
2023-04-05T05:06:34.606Z,68.69
2023-04-05T05:09:01.572Z,68.81
2023-04-05T05:11:30.171Z,69.37
2023-04-05T05:13:58.165Z,69.29
2023-04-05T05:16:28.077Z,68.83
2023-04-05T05:18:55.590Z,68.93
2023-04-05T05:21:26.691Z,68.41
2023-04-05T05:23:57.193Z,67.60
2023-04-05T05:26:26.484Z,67.28
2023-04-05T05:28:53.289Z,66.37
2023-04-05T05:31:20.984Z,66.57
2023-04-05T05:33:50.016Z,66.42
2023-04-05T05:36:16.794Z,66.59
2023-04-05T05:38:43.652Z,65.96
2023-04-05T05:41:10.824Z,66.19
2023-04-05T05:43:37.618Z,65.85
2023-04-05T05:46:04.385Z,65.96
2023-04-05T05:48:31.218Z,65.22
2023-04-05T05:51:01.666Z,64.87
2023-04-05T05:53:28.610Z,65.03
2023-04-05T05:55:58.427Z,64.55
2023-04-05T05:58:25.278Z,64.96
2023-04-05T06:00:56.934Z,65.51
2023-04-05T06:03:24.254Z,66.17
2023-04-05T06:05:55.439Z,65.65
2023-04-05T06:08:22.718Z,66.00
2023-04-05T06:10:50.701Z,64.19
2023-04-05T06:13:17.468Z,63.92
2023-04-05T06:15:44.319Z,63.62
2023-04-05T06:18:11.116Z,63.82
2023-04-05T06:20:40.714Z,63.22
2023-04-05T06:23:07.865Z,62.17
2023-04-05T06:25:34.991Z,62.33
2023-04-05T06:28:04.091Z,62.01
2023-04-05T06:30:31.833Z,62.22
2023-04-05T06:32:58.842Z,61.80
2023-04-05T06:35:26.759Z,62.28
2023-04-05T06:37:53.574Z,62.56
2023-04-05T06:40:20.719Z,62.64
2023-04-05T06:42:47.526Z,63.01
2023-04-05T06:45:20.035Z,62.85
2023-04-05T06:47:46.883Z,62.85
2023-04-05T06:50:13.916Z,62.58
2023-04-05T06:52:41.108Z,62.38
2023-04-05T06:55:08.393Z,61.99
2023-04-05T06:57:35.281Z,61.59
2023-04-05T07:00:02.038Z,61.29
2023-04-05T07:02:28.842Z,61.13
2023-04-05T07:05:04.501Z,60.47
2023-04-05T07:07:33.972Z,60.31
2023-04-05T07:10:00.760Z,59.19
2023-04-05T07:12:27.504Z,59.48
2023-04-05T07:14:54.286Z,58.64
2023-04-05T07:17:21.796Z,58.10
2023-04-05T07:19:48.768Z,57.64
2023-04-05T07:22:15.738Z,57.86
2023-04-05T07:24:42.586Z,56.98
2023-04-05T07:27:09.394Z,56.95
2023-04-05T07:29:40.663Z,57.24
2023-04-05T07:32:08.019Z,56.53
2023-04-05T07:34:35.635Z,56.31
2023-04-05T07:37:03.307Z,55.53
2023-04-05T07:39:30.116Z,55.24
2023-04-05T07:41:56.960Z,55.17
2023-04-05T07:44:23.762Z,55.29
2023-04-05T07:46:50.742Z,55.34
2023-04-05T07:49:17.551Z,55.00
2023-04-05T07:51:44.370Z,55.03
2023-04-05T07:54:11.605Z,55.24
2023-04-05T07:56:38.467Z,55.25
2023-04-05T07:59:05.465Z,55.44
2023-04-05T08:01:32.196Z,55.02
2023-04-05T08:03:59.221Z,55.13
2023-04-05T08:06:27.503Z,55.10
2023-04-05T08:08:54.475Z,54.85
2023-04-05T08:11:21.651Z,54.56
2023-04-05T08:13:48.585Z,54.50
2023-04-05T08:16:15.574Z,53.83
2023-04-05T08:18:42.396Z,53.72
2023-04-05T08:21:09.106Z,54.08
2023-04-05T08:23:35.849Z,54.11
2023-04-05T08:26:02.698Z,53.79
2023-04-05T08:28:29.570Z,53.94
2023-04-05T08:30:57.699Z,54.01
2023-04-05T08:33:28.614Z,54.33
2023-04-05T08:35:55.432Z,54.73
2023-04-05T08:38:22.348Z,54.37
2023-04-05T08:40:49.750Z,53.84
2023-04-05T08:43:23.615Z,53.42
2023-04-05T08:45:52.133Z,53.28
2023-04-05T08:48:20.006Z,52.41
2023-04-05T08:50:53.572Z,52.08
2023-04-05T08:53:20.986Z,51.45
2023-04-05T08:55:53.726Z,51.39
2023-04-05T08:58:24.464Z,51.40
2023-04-05T09:00:52.241Z,50.40
2023-04-05T09:03:24.157Z,50.80
2023-04-05T09:05:51.740Z,49.11
2023-04-05T09:08:18.943Z,48.63
2023-04-05T09:10:45.798Z,48.42
2023-04-05T09:13:12.618Z,48.51
2023-04-05T09:15:40.492Z,47.63
2023-04-05T09:18:15.491Z,47.24
2023-04-05T09:20:50.672Z,47.06
2023-04-05T09:23:17.412Z,46.96
2023-04-05T09:25:46.674Z,47.67
2023-04-05T09:28:13.504Z,49.08
2023-04-05T09:30:46.271Z,48.58
2023-04-05T09:33:19.915Z,49.29
2023-04-05T09:35:51.383Z,48.99
2023-04-05T09:38:18.692Z,48.82
2023-04-05T09:40:49.705Z,47.69
2023-04-05T09:43:42.743Z,47.10
2023-04-05T09:46:32.393Z,47.43
2023-04-05T09:49:00.232Z,47.60
2023-04-05T09:51:38.175Z,47.60
2023-04-05T09:54:11.379Z,46.48
2023-04-05T09:56:40.938Z,46.17
2023-04-05T09:59:12.208Z,46.53
2023-04-05T10:01:43.417Z,45.78
2023-04-05T10:04:11.017Z,47.21
2023-04-05T10:06:39.712Z,44.83
2023-04-05T10:09:08.446Z,45.52
2023-04-05T10:11:37.040Z,45.06
2023-04-05T10:14:05.922Z,45.10
2023-04-05T10:16:37.202Z,45.20
2023-04-05T10:19:10.403Z,45.13
2023-04-05T10:21:43.834Z,45.44
2023-04-05T10:24:41.154Z,45.12
2023-04-05T10:27:52.497Z,44.26
2023-04-05T10:30:19.375Z,44.12
2023-04-05T10:32:48.963Z,41.87
2023-04-05T10:35:20.405Z,41.75
2023-04-05T10:38:05.192Z,42.18
2023-04-05T10:40:36.458Z,42.24
2023-04-05T10:43:07.235Z,43.30
2023-04-05T10:45:36.841Z,43.70
2023-04-05T10:48:31.950Z,44.61
2023-04-05T10:51:00.239Z,44.85
2023-04-05T10:53:27.506Z,45.28
2023-04-05T10:55:56.054Z,45.30
2023-04-05T10:58:24.514Z,45.19
2023-04-05T11:00:52.858Z,45.38
2023-04-05T11:03:44.529Z,45.36
2023-04-05T11:06:29.503Z,45.28
2023-04-05T11:09:09.208Z,44.49
2023-04-05T11:11:40.593Z,44.92
2023-04-05T11:14:22.490Z,45.16
2023-04-05T11:16:54.549Z,44.29
2023-04-05T11:19:21.514Z,44.81
2023-04-05T11:21:48.395Z,44.83
2023-04-05T11:24:18.926Z,45.31
2023-04-05T11:26:48.745Z,45.07
2023-04-05T11:29:16.136Z,46.33
2023-04-05T11:32:01.833Z,47.32
2023-04-05T11:34:28.582Z,47.77
2023-04-05T11:36:55.562Z,47.75
2023-04-05T11:39:22.309Z,47.62
2023-04-05T11:42:00.937Z,48.07
2023-04-05T11:44:29.265Z,48.54
2023-04-05T11:46:55.974Z,48.02
2023-04-05T11:49:24.498Z,48.02
2023-04-05T11:51:53.133Z,48.66
2023-04-05T11:54:33.157Z,49.20
2023-04-05T11:57:00.869Z,49.34
2023-04-05T11:59:34.295Z,50.33
2023-04-05T12:02:08.185Z,51.47
2023-04-05T12:04:38.388Z,50.29
2023-04-05T12:07:09.616Z,52.03
2023-04-05T12:09:36.474Z,52.24
2023-04-05T12:12:03.406Z,53.11
2023-04-05T12:14:32.300Z,53.67
2023-04-05T12:16:59.030Z,54.40
2023-04-05T12:19:30.413Z,54.89
2023-04-05T12:21:57.420Z,55.22
2023-04-05T12:24:25.023Z,55.61
2023-04-05T12:26:51.915Z,56.01
2023-04-05T12:29:18.623Z,56.78
2023-04-05T12:31:46.490Z,56.55
2023-04-05T12:34:14.730Z,56.26
2023-04-05T12:36:46.389Z,56.28
2023-04-05T12:39:13.204Z,55.17
2023-04-05T12:41:40.167Z,50.47
2023-04-05T12:44:14.875Z,52.35
2023-04-05T12:46:43.848Z,54.59
2023-04-05T12:49:11.803Z,53.89
2023-04-05T12:51:46.262Z,53.98
2023-04-05T12:54:14.666Z,53.26
2023-04-05T12:56:42.137Z,53.09
2023-04-05T12:59:08.988Z,53.74
2023-04-05T13:01:35.916Z,52.41
2023-04-05T13:04:15.237Z,53.20
2023-04-05T13:06:44.562Z,53.28
2023-04-05T13:09:11.314Z,53.76
2023-04-05T13:11:38.173Z,53.68
2023-04-05T13:14:04.959Z,54.08
2023-04-05T13:16:31.847Z,52.59
2023-04-05T13:18:58.601Z,52.69
2023-04-05T13:21:25.947Z,51.98
2023-04-05T13:23:52.721Z,51.08
2023-04-05T13:26:19.466Z,51.35
2023-04-05T13:28:46.265Z,49.77
2023-04-05T13:31:15.122Z,46.73
2023-04-05T13:33:42.629Z,45.50
2023-04-05T13:36:11.077Z,44.56
2023-04-05T13:38:37.894Z,44.52
2023-04-05T13:41:05.059Z,42.69
2023-04-05T13:43:31.883Z,41.21
2023-04-05T13:45:58.639Z,40.73
2023-04-05T13:48:25.390Z,39.74
2023-04-05T13:50:52.202Z,38.82
2023-04-05T13:53:18.982Z,38.98
2023-04-05T13:55:45.713Z,39.88
2023-04-05T13:58:14.394Z,40.87
2023-04-05T14:00:41.836Z,41.17
2023-04-05T14:03:09.074Z,42.12
2023-04-05T14:05:36.173Z,42.36
2023-04-05T14:08:03.134Z,42.07
2023-04-05T14:10:31.942Z,41.82
2023-04-05T14:12:58.706Z,41.49
2023-04-05T14:15:25.719Z,41.53
2023-04-05T14:17:52.604Z,41.35
2023-04-05T14:20:19.384Z,40.98
2023-04-05T14:22:46.216Z,41.90
2023-04-05T14:25:13.033Z,42.74
2023-04-05T14:27:42.490Z,42.96
2023-04-05T14:30:11.190Z,43.97
2023-04-05T14:32:38.311Z,44.77
2023-04-05T14:35:05.821Z,45.14
2023-04-05T14:37:32.566Z,45.94
2023-04-05T14:39:59.327Z,46.90
2023-04-05T14:42:37.337Z,47.35
2023-04-05T14:45:12.387Z,47.08
2023-04-05T14:47:39.434Z,48.09
2023-04-05T14:50:07.859Z,47.89
2023-04-05T14:52:34.571Z,47.61
2023-04-05T14:55:01.296Z,47.23
2023-04-05T14:57:28.082Z,46.49
2023-04-05T14:59:54.828Z,47.32
2023-04-05T15:02:21.763Z,46.57
2023-04-05T15:04:48.586Z,46.33
2023-04-05T15:07:15.354Z,46.08
2023-04-05T15:09:43.099Z,45.43
2023-04-05T15:12:09.966Z,45.83
2023-04-05T15:14:36.827Z,46.16
2023-04-05T15:17:03.656Z,45.49
2023-04-05T15:19:30.667Z,44.90
2023-04-05T15:21:57.586Z,47.19
2023-04-05T15:24:24.400Z,48.38
2023-04-05T15:26:51.121Z,49.09
2023-04-05T15:29:17.870Z,50.23
2023-04-05T15:31:44.782Z,50.47
2023-04-05T15:34:11.658Z,50.23
2023-04-05T15:36:38.393Z,54.06
2023-04-05T15:39:05.372Z,51.95
2023-04-05T15:41:33.497Z,52.50
2023-04-05T15:44:00.930Z,52.94
2023-04-05T15:46:29.284Z,53.08
2023-04-05T15:48:56.255Z,52.05
2023-04-05T15:51:23.177Z,53.06
2023-04-05T15:53:50.264Z,53.85
2023-04-05T15:56:18.125Z,53.03
2023-04-05T15:58:45.335Z,52.75
2023-04-05T16:01:12.168Z,53.00
2023-04-05T16:03:39.159Z,53.07
2023-04-05T16:06:06.378Z,52.77
2023-04-05T16:08:33.230Z,52.86
2023-04-05T16:11:00.130Z,53.07
2023-04-05T16:13:27.806Z,52.97
2023-04-05T16:15:54.657Z,52.47
2023-04-05T16:18:21.484Z,52.33
2023-04-05T16:20:48.582Z,51.46
2023-04-05T16:23:15.633Z,52.14
2023-04-05T16:25:42.534Z,52.59
2023-04-05T16:28:09.563Z,52.75
2023-04-05T16:30:36.927Z,53.22
2023-04-05T16:33:03.834Z,52.99
2023-04-05T16:35:31.382Z,53.30
2023-04-05T16:38:02.758Z,52.86
2023-04-05T16:40:32.743Z,52.93
2023-04-05T16:43:00.101Z,53.11
2023-04-05T16:45:31.975Z,53.21
2023-04-05T16:47:58.755Z,53.39
2023-04-05T16:50:25.665Z,53.60
2023-04-05T16:52:52.420Z,53.83
2023-04-05T16:55:19.139Z,53.69
2023-04-05T16:57:46.155Z,53.67
2023-04-05T17:00:13.747Z,53.86
2023-04-05T17:02:40.573Z,53.92
2023-04-05T17:05:07.783Z,53.73
2023-04-05T17:07:34.568Z,53.95
2023-04-05T17:10:02.998Z,54.33
2023-04-05T17:12:30.039Z,54.35
2023-04-05T17:14:56.766Z,54.44
2023-04-05T17:17:23.533Z,54.81
2023-04-05T17:19:50.696Z,55.45
2023-04-05T17:22:17.515Z,55.56
2023-04-05T17:24:46.020Z,56.19
2023-04-05T17:27:12.798Z,56.40
2023-04-05T17:29:39.884Z,57.10
2023-04-05T17:32:07.012Z,57.04
2023-04-05T17:34:33.775Z,56.74
2023-04-05T17:37:00.775Z,56.52
2023-04-05T17:39:27.562Z,57.09
2023-04-05T17:41:56.588Z,57.15
2023-04-05T17:44:23.457Z,57.03
2023-04-05T17:47:01.296Z,57.74
2023-04-05T17:49:36.497Z,58.20
2023-04-05T17:52:04.886Z,58.43
2023-04-05T17:54:36.871Z,58.79
2023-04-05T17:57:06.868Z,59.53
2023-04-05T17:59:33.670Z,59.83
2023-04-05T18:02:00.715Z,60.13
2023-04-05T18:04:27.547Z,60.59
2023-04-05T18:06:54.314Z,60.70
2023-04-05T18:09:21.062Z,61.87
2023-04-05T18:11:47.851Z,61.60
2023-04-05T18:14:14.738Z,61.78
2023-04-05T18:16:41.988Z,62.20
2023-04-05T18:19:08.795Z,61.95
2023-04-05T18:21:35.612Z,62.13
2023-04-05T18:24:08.510Z,62.56
2023-04-05T18:26:35.316Z,62.63
2023-04-05T18:29:02.078Z,62.97
2023-04-05T18:31:29.499Z,62.85
2023-04-05T18:33:56.326Z,63.14
2023-04-05T18:36:26.436Z,63.46
2023-04-05T18:39:03.249Z,63.48
2023-04-05T18:41:30.102Z,63.63
2023-04-05T18:43:59.158Z,63.77
2023-04-05T18:46:26.320Z,63.71
2023-04-05T18:48:56.392Z,63.30
2023-04-05T18:51:27.276Z,63.63
2023-04-05T18:53:54.131Z,63.13
2023-04-05T18:56:21.377Z,62.14
2023-04-05T18:58:48.377Z,61.97
2023-04-05T19:01:16.080Z,61.64
2023-04-05T19:03:47.172Z,61.96
2023-04-05T19:06:14.738Z,62.08
2023-04-05T19:08:41.780Z,62.00
2023-04-05T19:11:13.105Z,61.89
2023-04-05T19:13:40.642Z,61.66
2023-04-05T19:16:07.577Z,61.32
2023-04-05T19:18:34.410Z,61.20
2023-04-05T19:21:01.384Z,61.22
2023-04-05T19:23:28.985Z,61.88
2023-04-05T19:25:57.057Z,61.47
2023-04-05T19:28:24.550Z,61.71
2023-04-05T19:30:51.512Z,61.85
2023-04-05T19:33:20.972Z,61.96
2023-04-05T19:35:48.480Z,62.04
2023-04-05T19:38:15.474Z,61.93
2023-04-05T19:40:42.733Z,62.24
2023-04-05T19:43:10.180Z,62.72
2023-04-05T19:45:37.240Z,62.74
2023-04-05T19:48:27.866Z,62.67
2023-04-05T19:50:56.413Z,62.89
2023-04-05T19:53:32.322Z,63.19
2023-04-05T19:55:59.082Z,63.61
2023-04-05T19:58:29.341Z,63.41
2023-04-05T20:00:56.416Z,63.38
2023-04-05T20:03:40.851Z,63.26
2023-04-05T20:06:11.355Z,63.29
2023-04-05T20:08:43.697Z,63.42
2023-04-05T20:11:13.675Z,63.50
2023-04-05T20:13:52.352Z,63.87
2023-04-05T20:16:30.380Z,63.49
2023-04-05T20:19:00.786Z,63.45
2023-04-05T20:21:27.614Z,63.61
2023-04-05T20:23:55.113Z,63.68
2023-04-05T20:26:30.745Z,63.79
2023-04-05T20:29:02.750Z,63.55
2023-04-05T20:31:32.932Z,63.48
2023-04-05T20:34:09.960Z,63.75
2023-04-05T20:36:38.829Z,63.78
2023-04-05T20:39:07.234Z,64.18
2023-04-05T20:41:34.412Z,64.43
2023-04-05T20:44:01.278Z,64.69
2023-04-05T20:46:28.379Z,64.91
2023-04-05T20:48:58.153Z,64.81
2023-04-05T20:51:25.649Z,65.10
2023-04-05T20:53:52.625Z,65.08
2023-04-05T20:56:19.564Z,65.10
2023-04-05T20:58:46.321Z,65.26
2023-04-05T21:01:13.189Z,65.38
2023-04-05T21:03:41.621Z,65.33
2023-04-05T21:06:10.112Z,65.27
2023-04-05T21:08:38.407Z,65.30
2023-04-05T21:11:06.097Z,65.46
2023-04-05T21:13:33.426Z,65.51
2023-04-05T21:16:00.320Z,65.49
2023-04-05T21:18:27.207Z,65.60
2023-04-05T21:20:54.514Z,65.66
2023-04-05T21:23:29.251Z,65.71
2023-04-05T21:25:56.901Z,65.95
2023-04-05T21:28:24.882Z,65.96
2023-04-05T21:30:52.115Z,66.05
2023-04-05T21:33:19.590Z,66.09
2023-04-05T21:35:46.590Z,66.04
2023-04-05T21:38:15.624Z,66.15
2023-04-05T21:40:44.831Z,66.09
2023-04-05T21:43:14.580Z,66.47
2023-04-05T21:45:41.412Z,66.53
2023-04-05T21:48:08.230Z,66.25
2023-04-05T21:50:35.083Z,66.14
2023-04-05T21:53:01.828Z,66.14
2023-04-05T21:55:28.536Z,65.95
2023-04-05T21:57:55.486Z,65.64
2023-04-05T22:00:25.141Z,65.28
2023-04-05T22:02:51.988Z,65.00
2023-04-05T22:05:34.038Z,64.93
2023-04-05T22:08:04.140Z,64.90
2023-04-05T22:10:31.018Z,64.55
2023-04-05T22:12:58.027Z,64.34
2023-04-05T22:15:24.825Z,64.34
2023-04-05T22:17:51.908Z,64.12
2023-04-05T22:20:18.636Z,64.16
2023-04-05T22:22:45.380Z,64.16
2023-04-05T22:25:12.210Z,64.02
2023-04-05T22:27:39.514Z,63.84
2023-04-05T22:30:08.175Z,63.77
2023-04-05T22:32:35.788Z,63.56
2023-04-05T22:35:04.496Z,63.77
2023-04-05T22:37:35.699Z,63.95
2023-04-05T22:40:04.012Z,64.41
2023-04-05T22:42:30.815Z,64.23
2023-04-05T22:44:57.606Z,64.31
2023-04-05T22:47:24.667Z,64.23
2023-04-05T22:49:51.960Z,64.00
2023-04-05T22:52:18.820Z,64.30
2023-04-05T22:54:45.556Z,64.14
2023-04-05T22:57:12.872Z,64.18
2023-04-05T22:59:39.669Z,64.08
2023-04-05T23:02:06.611Z,64.22
2023-04-05T23:04:33.454Z,64.58
2023-04-05T23:07:00.386Z,64.85
2023-04-05T23:09:27.684Z,64.71
2023-04-05T23:11:54.485Z,64.62
2023-04-05T23:14:21.802Z,64.70
2023-04-05T23:16:48.557Z,64.62
2023-04-05T23:19:15.403Z,64.66
2023-04-05T23:21:42.445Z,64.65
2023-04-05T23:24:10.825Z,64.88
2023-04-05T23:26:37.618Z,64.98
2023-04-05T23:29:04.394Z,65.06
2023-04-05T23:31:31.147Z,65.08
2023-04-05T23:33:58.095Z,64.57
2023-04-05T23:36:24.974Z,64.40
2023-04-05T23:38:51.701Z,64.48
2023-04-05T23:41:18.444Z,64.65
2023-04-05T23:43:46.054Z,64.44
2023-04-05T23:48:39.721Z,64.63
2023-04-05T23:51:06.489Z,64.76
2023-04-05T23:53:33.276Z,64.83
2023-04-05T23:56:00.050Z,64.69
2023-04-05T23:58:26.913Z,64.92
